createdAt,value
2018-09-23T00:03:26.924Z,99.90
2018-09-23T00:07:31.189Z,99.90
2018-09-23T00:11:35.593Z,99.90
2018-09-23T00:15:39.858Z,99.90
2018-09-23T00:19:44.188Z,99.90
2018-09-23T00:23:48.458Z,99.90
2018-09-23T00:27:52.810Z,99.90
2018-09-23T00:31:57.160Z,99.90
2018-09-23T00:36:01.572Z,99.90
2018-09-23T00:40:06.676Z,99.90
2018-09-23T00:44:10.934Z,99.90
2018-09-23T00:48:15.187Z,99.90
2018-09-23T00:52:19.501Z,99.90
2018-09-23T00:56:24.150Z,99.90
2018-09-23T01:00:28.466Z,99.90
2018-09-23T01:04:32.791Z,99.90
2018-09-23T01:08:37.225Z,99.90
2018-09-23T01:12:41.468Z,99.90
2018-09-23T01:16:45.878Z,99.90
2018-09-23T01:20:50.205Z,99.90
2018-09-23T01:24:54.433Z,99.90
2018-09-23T01:28:58.804Z,99.90
2018-09-23T01:33:03.027Z,99.90
2018-09-23T01:37:07.376Z,99.90
2018-09-23T01:41:11.700Z,99.90
2018-09-23T01:45:15.935Z,99.90
2018-09-23T01:49:20.249Z,99.90
2018-09-23T01:53:24.565Z,99.90
2018-09-23T01:57:28.805Z,99.90
2018-09-23T02:01:33.179Z,99.90
2018-09-23T02:05:37.416Z,99.90
2018-09-23T02:09:41.737Z,99.90
2018-09-23T02:13:46.298Z,99.90
2018-09-23T02:17:50.616Z,99.90
2018-09-23T02:21:54.835Z,99.90
2018-09-23T02:25:59.218Z,99.90
2018-09-23T02:30:03.519Z,99.90
2018-09-23T02:34:07.837Z,99.90
2018-09-23T02:38:12.175Z,99.90
2018-09-23T02:42:16.484Z,99.90
2018-09-23T02:46:20.808Z,99.90
2018-09-23T02:50:25.073Z,99.90
2018-09-23T02:54:29.380Z,99.90
2018-09-23T02:58:33.723Z,99.90
2018-09-23T03:02:38.148Z,99.90
2018-09-23T03:06:42.422Z,99.90
2018-09-23T03:10:46.744Z,99.90
2018-09-23T03:14:50.974Z,99.90
2018-09-23T03:18:55.266Z,99.90
2018-09-23T03:22:59.528Z,99.90
2018-09-23T03:27:03.827Z,99.90
2018-09-23T03:31:08.463Z,99.90
2018-09-23T03:35:12.819Z,99.90
2018-09-23T03:39:17.085Z,99.90
2018-09-23T03:43:21.440Z,99.90
2018-09-23T03:47:25.739Z,99.90
2018-09-23T03:51:30.172Z,99.90
2018-09-23T03:55:34.517Z,99.90
2018-09-23T03:59:38.861Z,99.90
2018-09-23T04:03:43.204Z,99.90
2018-09-23T04:07:47.530Z,99.90
2018-09-23T04:11:51.848Z,99.90
2018-09-23T04:15:56.164Z,99.90
2018-09-23T04:20:00.416Z,99.90
2018-09-23T04:24:04.815Z,99.90
2018-09-23T04:28:09.075Z,99.90
2018-09-23T04:32:13.439Z,99.90
2018-09-23T04:36:17.676Z,99.90
2018-09-23T04:40:22.042Z,99.90
2018-09-23T04:44:26.274Z,99.90
2018-09-23T04:48:30.596Z,99.90
2018-09-23T04:52:36.072Z,99.90
2018-09-23T04:56:40.294Z,99.90
2018-09-23T05:00:44.614Z,99.90
2018-09-23T05:04:48.991Z,99.90
2018-09-23T05:08:53.496Z,99.90
2018-09-23T05:12:58.633Z,99.90
2018-09-23T05:17:03.139Z,99.90
2018-09-23T05:21:07.522Z,99.90
2018-09-23T05:25:11.833Z,99.90
2018-09-23T05:29:16.180Z,99.90
2018-09-23T05:33:20.457Z,99.90
2018-09-23T05:37:24.968Z,99.90
2018-09-23T05:41:29.280Z,99.90
2018-09-23T05:45:33.539Z,99.90
2018-09-23T05:49:38.078Z,99.90
2018-09-23T05:53:42.420Z,99.90
2018-09-23T05:57:46.713Z,99.90
2018-09-23T06:01:51.133Z,99.90
2018-09-23T06:05:55.516Z,99.90
2018-09-23T06:09:59.787Z,99.90
2018-09-23T06:14:04.135Z,99.90
2018-09-23T06:18:08.574Z,99.90
2018-09-23T06:22:13.821Z,99.90
2018-09-23T06:26:18.082Z,99.90
2018-09-23T06:30:22.322Z,99.90
2018-09-23T06:34:26.758Z,99.90
2018-09-23T06:38:31.093Z,99.90
2018-09-23T06:42:35.390Z,99.90
2018-09-23T06:46:39.661Z,98.70
2018-09-23T06:50:43.915Z,98.30
2018-09-23T06:54:48.274Z,97.10
2018-09-23T06:58:52.961Z,98.90
2018-09-23T07:03:01.318Z,97.10
2018-09-23T07:07:05.665Z,96.80
2018-09-23T07:11:10.061Z,98.10
2018-09-23T07:15:14.288Z,97.00
2018-09-23T07:19:18.612Z,97.10
2018-09-23T07:23:23.119Z,95.80
2018-09-23T07:27:27.480Z,97.10
2018-09-23T07:31:31.871Z,95.20
2018-09-23T07:35:36.253Z,94.50
2018-09-23T07:39:40.576Z,94.70
2018-09-23T07:43:44.904Z,92.60
2018-09-23T07:47:49.214Z,92.20
2018-09-23T07:51:53.578Z,93.10
2018-09-23T07:55:57.836Z,91.00
2018-09-23T08:00:02.394Z,87.50
2018-09-23T08:04:06.656Z,87.40
2018-09-23T08:08:11.077Z,84.60
2018-09-23T08:12:15.354Z,84.50
2018-09-23T08:16:19.708Z,90.00
2018-09-23T08:20:24.120Z,87.20
2018-09-23T08:24:30.371Z,87.70
2018-09-23T08:28:34.764Z,84.70
2018-09-23T08:32:39.201Z,83.40
2018-09-23T08:36:43.472Z,82.60
2018-09-23T08:40:47.781Z,78.50
2018-09-23T08:44:56.040Z,80.40
2018-09-23T08:49:00.285Z,80.90
2018-09-23T08:53:05.694Z,80.10
2018-09-23T08:57:10.529Z,79.90
2018-09-23T09:01:14.949Z,77.70
2018-09-23T09:05:19.250Z,80.20
2018-09-23T09:09:27.020Z,77.90
2018-09-23T09:19:07.744Z,81.50
2018-09-23T09:23:12.125Z,82.70
2018-09-23T09:27:16.414Z,78.50
2018-09-23T09:31:21.040Z,77.80
2018-09-23T09:35:25.619Z,77.00
2018-09-23T09:39:35.194Z,77.60
2018-09-23T09:43:39.430Z,75.50
2018-09-23T09:47:43.844Z,74.00
2018-09-23T09:51:48.191Z,71.20
2018-09-23T09:55:52.714Z,73.40
2018-09-23T09:59:57.006Z,71.30
2018-09-23T10:04:01.471Z,65.30
2018-09-23T10:08:05.734Z,68.40
2018-09-23T10:12:14.821Z,68.70
2018-09-23T10:16:19.058Z,63.70
2018-09-23T10:20:23.638Z,65.30
2018-09-23T10:24:28.102Z,64.90
2018-09-23T10:28:35.021Z,64.60
2018-09-23T10:32:42.846Z,65.40
2018-09-23T10:36:47.441Z,61.60
2018-09-23T10:40:52.145Z,63.20
2018-09-23T10:44:57.864Z,60.90
2018-09-23T10:49:02.143Z,58.80
2018-09-23T10:53:12.198Z,54.40
2018-09-23T10:57:16.455Z,54.00
2018-09-23T11:01:21.014Z,52.90
2018-09-23T11:05:25.361Z,55.00
2018-09-23T11:09:29.736Z,55.10
2018-09-23T11:13:35.001Z,53.30
2018-09-23T11:17:39.661Z,52.60
2018-09-23T11:21:44.087Z,51.20
2018-09-23T11:25:48.516Z,46.20
2018-09-23T11:29:53.030Z,46.90
2018-09-23T11:33:57.320Z,48.10
2018-09-23T11:38:01.779Z,41.00
2018-09-23T11:42:06.299Z,39.70
2018-09-23T11:46:10.782Z,42.30
2018-09-23T11:50:14.995Z,42.10
2018-09-23T11:54:19.459Z,40.30
2018-09-23T11:58:23.765Z,41.40
2018-09-23T12:02:28.616Z,41.60
2018-09-23T12:06:32.937Z,41.90
2018-09-23T12:10:37.490Z,38.70
2018-09-23T12:14:41.806Z,39.80
2018-09-23T12:18:46.258Z,35.60
2018-09-23T12:22:50.862Z,35.80
2018-09-23T12:26:56.491Z,35.00
2018-09-23T12:31:00.932Z,33.00
2018-09-23T12:35:05.367Z,35.40
2018-09-23T12:39:11.432Z,31.50
2018-09-23T12:44:18.853Z,37.00
2018-09-23T12:48:23.361Z,33.20
2018-09-23T12:52:29.054Z,34.70
2018-09-23T12:56:33.681Z,35.20
2018-09-23T13:00:38.446Z,35.60
2018-09-23T13:04:42.804Z,37.40
2018-09-23T13:08:47.078Z,35.60
2018-09-23T13:12:51.311Z,33.90
2018-09-23T13:16:55.914Z,37.30
2018-09-23T13:21:00.482Z,42.60
2018-09-23T13:25:04.882Z,45.70
2018-09-23T13:29:09.136Z,40.10
2018-09-23T13:33:15.570Z,38.80
2018-09-23T13:37:20.393Z,38.40
2018-09-23T13:41:25.419Z,37.50
2018-09-23T13:45:29.990Z,40.10
2018-09-23T13:49:34.546Z,38.60
2018-09-23T13:53:39.190Z,39.30
2018-09-23T13:57:44.922Z,41.50
2018-09-23T14:01:49.600Z,45.70
2018-09-23T14:05:54.903Z,46.60
2018-09-23T14:09:59.346Z,43.20
2018-09-23T14:14:04.069Z,37.30
2018-09-23T14:18:08.506Z,39.20
2018-09-23T14:22:13.341Z,40.40
2018-09-23T14:26:17.787Z,38.60
2018-09-23T14:30:22.600Z,36.10
2018-09-23T14:34:27.098Z,36.20
2018-09-23T14:38:31.457Z,40.50
2018-09-23T14:42:36.529Z,46.50
2018-09-23T14:46:40.802Z,48.20
2018-09-23T14:50:45.441Z,53.30
2018-09-23T14:54:50.208Z,57.20
2018-09-23T14:58:55.029Z,60.00
2018-09-23T15:02:59.753Z,62.20
2018-09-23T15:07:04.446Z,68.10
2018-09-23T15:11:08.968Z,69.20
2018-09-23T15:15:13.231Z,69.80
2018-09-23T15:19:18.881Z,73.50
2018-09-23T15:23:23.342Z,73.60
2018-09-23T15:27:27.592Z,74.20
2018-09-23T15:31:31.964Z,73.20
2018-09-23T15:35:36.371Z,69.80
2018-09-23T15:39:40.689Z,69.50
2018-09-23T15:43:45.213Z,72.80
2018-09-23T15:47:49.594Z,70.80
2018-09-23T15:51:54.092Z,73.50
2018-09-23T15:55:58.364Z,73.10
2018-09-23T16:00:02.776Z,73.90
2018-09-23T16:04:07.445Z,74.50
2018-09-23T16:08:11.716Z,76.40
2018-09-23T16:12:16.014Z,78.20
2018-09-23T16:16:20.401Z,79.00
2018-09-23T16:20:25.013Z,83.60
2018-09-23T16:24:29.234Z,86.00
2018-09-23T16:28:33.563Z,87.10
2018-09-23T16:32:37.832Z,89.20
2018-09-23T16:36:42.076Z,90.30
2018-09-23T16:40:46.612Z,91.10
2018-09-23T16:44:51.337Z,92.50
2018-09-23T16:48:55.793Z,92.00
2018-09-23T16:53:00.483Z,93.70
2018-09-23T16:57:04.725Z,94.10
2018-09-23T17:01:09.155Z,95.40
2018-09-23T17:05:13.501Z,97.00
2018-09-23T17:09:17.889Z,97.10
2018-09-23T17:13:22.533Z,97.50
2018-09-23T17:17:26.902Z,98.20
2018-09-23T17:21:31.473Z,98.50
2018-09-23T17:25:35.758Z,98.90
2018-09-23T17:29:40.057Z,99.90
2018-09-23T17:33:44.416Z,99.90
2018-09-23T17:37:48.662Z,99.90
2018-09-23T17:41:53.151Z,99.90
2018-09-23T17:45:57.406Z,99.90
2018-09-23T17:50:01.637Z,99.90
2018-09-23T17:54:06.108Z,99.90
2018-09-23T17:58:10.385Z,99.90
2018-09-23T18:02:14.973Z,99.90
2018-09-23T18:06:19.507Z,99.90
2018-09-23T18:10:24.092Z,99.90
2018-09-23T18:14:28.409Z,99.90
2018-09-23T18:18:32.792Z,99.90
2018-09-23T18:22:37.037Z,99.90
2018-09-23T18:26:41.353Z,99.90
2018-09-23T18:30:46.195Z,99.90
2018-09-23T18:34:50.576Z,99.90
2018-09-23T18:38:54.886Z,99.90
2018-09-23T18:42:59.504Z,99.90
2018-09-23T18:47:04.414Z,99.90
2018-09-23T18:51:08.655Z,99.90
2018-09-23T18:55:19.150Z,99.90
2018-09-23T18:59:23.386Z,99.90
2018-09-23T19:03:27.785Z,99.90
2018-09-23T19:07:32.168Z,99.90
2018-09-23T19:11:36.936Z,99.90
2018-09-23T19:15:41.222Z,99.90
2018-09-23T19:19:50.768Z,99.90
2018-09-23T19:23:55.095Z,99.90
2018-09-23T19:27:59.785Z,99.90
2018-09-23T19:32:04.225Z,99.90
2018-09-23T19:36:08.567Z,99.90
2018-09-23T19:40:12.989Z,99.90
2018-09-23T19:44:18.282Z,99.90
2018-09-23T19:48:22.507Z,99.90
2018-09-23T19:52:26.743Z,99.90
2018-09-23T19:56:31.328Z,99.90
2018-09-23T20:00:36.477Z,99.90
2018-09-23T20:04:41.133Z,99.90
2018-09-23T20:08:45.445Z,99.90
2018-09-23T20:12:49.761Z,99.90
2018-09-23T20:16:53.997Z,99.90
2018-09-23T20:20:58.680Z,99.90
2018-09-23T20:25:02.927Z,99.90
2018-09-23T20:29:07.614Z,99.90
2018-09-23T20:33:12.140Z,99.90
2018-09-23T20:37:16.628Z,99.90
2018-09-23T20:41:20.993Z,99.90
2018-09-23T20:45:25.324Z,99.90
2018-09-23T20:49:29.847Z,99.90
2018-09-23T20:53:34.387Z,99.90
2018-09-23T20:57:38.617Z,99.90
2018-09-23T21:01:43.166Z,99.90
2018-09-23T21:05:47.405Z,99.90
2018-09-23T21:09:51.703Z,99.90
2018-09-23T21:13:55.936Z,99.90
2018-09-23T21:18:00.267Z,99.90
2018-09-23T21:22:04.553Z,99.90
2018-09-23T21:26:08.777Z,99.90
2018-09-23T21:30:13.147Z,99.90
2018-09-23T21:34:17.395Z,99.90
2018-09-23T21:38:21.768Z,99.90
2018-09-23T21:42:26.156Z,99.90
2018-09-23T21:46:30.546Z,99.90
2018-09-23T21:50:34.781Z,99.90
2018-09-23T21:54:39.234Z,99.90
2018-09-23T21:58:43.514Z,99.90
2018-09-23T22:02:48.058Z,99.90
2018-09-23T22:06:52.287Z,99.90
2018-09-23T22:10:56.971Z,99.90
2018-09-23T22:15:01.252Z,99.90
2018-09-23T22:19:05.806Z,99.90
2018-09-23T22:23:10.033Z,99.90
2018-09-23T22:27:14.430Z,99.90
2018-09-23T22:31:18.854Z,99.90
2018-09-23T22:35:23.092Z,99.90
2018-09-23T22:39:27.569Z,99.90
2018-09-23T22:43:31.818Z,99.90
2018-09-23T22:47:36.753Z,99.90
2018-09-23T22:51:41.039Z,99.90
2018-09-23T22:55:45.296Z,99.90
2018-09-23T22:59:49.667Z,99.90
2018-09-23T23:03:54.201Z,99.80
2018-09-23T23:07:58.475Z,96.30
2018-09-23T23:12:02.873Z,90.80
2018-09-23T23:16:07.205Z,87.60
2018-09-23T23:20:11.556Z,87.80
2018-09-23T23:24:16.245Z,85.20
2018-09-23T23:28:20.535Z,79.70
2018-09-23T23:32:24.755Z,83.90
2018-09-23T23:36:30.118Z,90.10
2018-09-23T23:40:34.457Z,90.00
2018-09-23T23:44:38.758Z,91.50
2018-09-23T23:48:43.024Z,93.40
2018-09-23T23:52:47.256Z,95.80
2018-09-23T23:56:51.620Z,94.90
